sensor_id;sensor_type;location;lat;lon;timestamp;pressure;altitude;pressure_sealevel;temperature;humidity
4449;BME280;2237;51.870;6.160;2022-08-19T00:01:58;101196.38;;;22.44;70.96
4449;BME280;2237;51.870;6.160;2022-08-19T00:04:32;101195.28;;;22.34;71.06
4449;BME280;2237;51.870;6.160;2022-08-19T00:06:59;101195.97;;;22.24;70.99
4449;BME280;2237;51.870;6.160;2022-08-19T00:09:26;101197.38;;;22.03;72.17
4449;BME280;2237;51.870;6.160;2022-08-19T00:11:55;101194.06;;;21.99;72.99
4449;BME280;2237;51.870;6.160;2022-08-19T00:14:24;101194.13;;;21.98;73.36
4449;BME280;2237;51.870;6.160;2022-08-19T00:16:51;101195.19;;;21.95;73.41
4449;BME280;2237;51.870;6.160;2022-08-19T00:19:21;101196.03;;;21.95;73.62
4449;BME280;2237;51.870;6.160;2022-08-19T00:21:47;101193.38;;;21.95;73.52
4449;BME280;2237;51.870;6.160;2022-08-19T00:24:14;101186.19;;;21.98;73.52
4449;BME280;2237;51.870;6.160;2022-08-19T00:26:43;101185.31;;;21.97;73.33
4449;BME280;2237;51.870;6.160;2022-08-19T00:29:11;101182.97;;;21.92;74.00
4449;BME280;2237;51.870;6.160;2022-08-19T00:31:39;101187.22;;;21.81;74.79
4449;BME280;2237;51.870;6.160;2022-08-19T00:34:07;101186.38;;;21.66;75.53
4449;BME280;2237;51.870;6.160;2022-08-19T00:36:34;101197.19;;;21.63;75.88
4449;BME280;2237;51.870;6.160;2022-08-19T00:39:00;101186.41;;;21.52;76.53
4449;BME280;2237;51.870;6.160;2022-08-19T00:41:27;101191.69;;;21.52;77.33
4449;BME280;2237;51.870;6.160;2022-08-19T00:44:12;101191.22;;;21.46;77.80
4449;BME280;2237;51.870;6.160;2022-08-19T00:46:42;101186.28;;;21.39;78.13
4449;BME280;2237;51.870;6.160;2022-08-19T00:49:32;101192.25;;;21.29;79.48
4449;BME280;2237;51.870;6.160;2022-08-19T00:52:02;101194.91;;;21.29;79.54
4449;BME280;2237;51.870;6.160;2022-08-19T00:54:30;101194.59;;;21.33;78.98
4449;BME280;2237;51.870;6.160;2022-08-19T00:56:58;101189.41;;;21.32;79.34
4449;BME280;2237;51.870;6.160;2022-08-19T00:59:27;101190.94;;;21.36;79.34
4449;BME280;2237;51.870;6.160;2022-08-19T01:02:15;101186.22;;;21.41;79.55
4449;BME280;2237;51.870;6.160;2022-08-19T01:04:42;101187.72;;;21.45;78.92
4449;BME280;2237;51.870;6.160;2022-08-19T01:07:08;101198.22;;;21.47;78.92
4449;BME280;2237;51.870;6.160;2022-08-19T01:09:40;101200.22;;;21.43;79.47
4449;BME280;2237;51.870;6.160;2022-08-19T01:12:07;101192.06;;;21.32;79.18
4449;BME280;2237;51.870;6.160;2022-08-19T01:14:35;101192.44;;;21.26;79.57
4449;BME280;2237;51.870;6.160;2022-08-19T01:17:03;101184.84;;;21.20;79.95
4449;BME280;2237;51.870;6.160;2022-08-19T01:19:35;101185.22;;;21.14;80.23
4449;BME280;2237;51.870;6.160;2022-08-19T01:22:19;101197.03;;;21.08;80.47
4449;BME280;2237;51.870;6.160;2022-08-19T01:24:56;101197.72;;;21.12;80.61
4449;BME280;2237;51.870;6.160;2022-08-19T01:27:24;101199.22;;;21.16;80.07
4449;BME280;2237;51.870;6.160;2022-08-19T01:29:51;101177.97;;;21.17;79.58
4449;BME280;2237;51.870;6.160;2022-08-19T01:32:18;101184.84;;;21.20;79.59
4449;BME280;2237;51.870;6.160;2022-08-19T01:34:59;101191.19;;;21.17;79.20
4449;BME280;2237;51.870;6.160;2022-08-19T01:37:29;101191.75;;;21.08;78.66
4449;BME280;2237;51.870;6.160;2022-08-19T01:39:56;101190.34;;;20.87;78.42
4449;BME280;2237;51.870;6.160;2022-08-19T01:42:23;101201.00;;;20.71;79.10
4449;BME280;2237;51.870;6.160;2022-08-19T01:44:55;101206.88;;;20.61;79.23
4449;BME280;2237;51.870;6.160;2022-08-19T01:47:22;101197.69;;;20.52;79.92
4449;BME280;2237;51.870;6.160;2022-08-19T01:49:48;101195.72;;;20.56;80.42
4449;BME280;2237;51.870;6.160;2022-08-19T01:52:15;101199.63;;;20.64;80.38
4449;BME280;2237;51.870;6.160;2022-08-19T01:54:41;101201.00;;;20.71;79.51
4449;BME280;2237;51.870;6.160;2022-08-19T01:57:10;101188.13;;;20.65;79.04
4449;BME280;2237;51.870;6.160;2022-08-19T01:59:39;101195.31;;;20.63;79.22
4449;BME280;2237;51.870;6.160;2022-08-19T02:02:06;101207.41;;;20.67;79.29
4449;BME280;2237;51.870;6.160;2022-08-19T02:04:35;101206.34;;;20.70;79.30
4449;BME280;2237;51.870;6.160;2022-08-19T02:07:01;101205.72;;;20.66;79.04
4449;BME280;2237;51.870;6.160;2022-08-19T02:09:28;101212.47;;;20.56;79.87
4449;BME280;2237;51.870;6.160;2022-08-19T02:11:54;101205.16;;;20.46;80.58
4449;BME280;2237;51.870;6.160;2022-08-19T02:14:21;101200.69;;;20.46;81.27
4449;BME280;2237;51.870;6.160;2022-08-19T02:16:47;101206.59;;;20.51;81.19
4449;BME280;2237;51.870;6.160;2022-08-19T02:19:14;101214.94;;;20.59;80.75
4449;BME280;2237;51.870;6.160;2022-08-19T02:21:40;101210.56;;;20.58;80.45
4449;BME280;2237;51.870;6.160;2022-08-19T02:24:07;101205.72;;;20.51;80.87
4449;BME280;2237;51.870;6.160;2022-08-19T02:26:33;101204.88;;;20.50;81.42
4449;BME280;2237;51.870;6.160;2022-08-19T02:29:00;101191.56;;;20.52;81.14
4449;BME280;2237;51.870;6.160;2022-08-19T02:31:27;101205.63;;;20.52;80.50
4449;BME280;2237;51.870;6.160;2022-08-19T02:33:55;101207.25;;;20.55;80.28
4449;BME280;2237;51.870;6.160;2022-08-19T02:36:23;101206.25;;;20.57;80.14
4449;BME280;2237;51.870;6.160;2022-08-19T02:38:50;101203.47;;;20.59;80.19
4449;BME280;2237;51.870;6.160;2022-08-19T02:41:31;101200.94;;;20.57;80.04
4449;BME280;2237;51.870;6.160;2022-08-19T02:44:00;101208.28;;;20.52;79.90
4449;BME280;2237;51.870;6.160;2022-08-19T02:46:48;101208.44;;;20.49;79.67
4449;BME280;2237;51.870;6.160;2022-08-19T02:49:17;101211.19;;;20.48;80.22
4449;BME280;2237;51.870;6.160;2022-08-19T02:51:45;101214.28;;;20.40;80.67
4449;BME280;2237;51.870;6.160;2022-08-19T02:54:13;101213.59;;;20.37;80.91
4449;BME280;2237;51.870;6.160;2022-08-19T02:56:41;101219.75;;;20.37;80.98
4449;BME280;2237;51.870;6.160;2022-08-19T02:59:08;101218.91;;;20.37;81.38
4449;BME280;2237;51.870;6.160;2022-08-19T03:01:38;101210.09;;;20.36;80.65
4449;BME280;2237;51.870;6.160;2022-08-19T03:04:07;101207.44;;;20.36;80.64
4449;BME280;2237;51.870;6.160;2022-08-19T03:06:37;101209.34;;;20.34;80.21
4449;BME280;2237;51.870;6.160;2022-08-19T03:09:03;101214.63;;;20.34;80.13
4449;BME280;2237;51.870;6.160;2022-08-19T03:11:31;101208.66;;;20.31;80.09
4449;BME280;2237;51.870;6.160;2022-08-19T03:13:59;101211.38;;;20.29;80.02
4449;BME280;2237;51.870;6.160;2022-08-19T03:16:29;101211.53;;;20.26;80.47
4449;BME280;2237;51.870;6.160;2022-08-19T03:18:59;101216.00;;;20.25;80.53
4449;BME280;2237;51.870;6.160;2022-08-19T03:21:29;101208.06;;;20.25;80.01
4449;BME280;2237;51.870;6.160;2022-08-19T03:23:57;101213.41;;;20.24;80.01
4449;BME280;2237;51.870;6.160;2022-08-19T03:26:24;101214.31;;;20.23;80.25
4449;BME280;2237;51.870;6.160;2022-08-19T03:28:51;101210.16;;;20.19;79.79
4449;BME280;2237;51.870;6.160;2022-08-19T03:31:25;101218.16;;;20.17;79.82
4449;BME280;2237;51.870;6.160;2022-08-19T03:34:16;101223.72;;;20.13;79.79
4449;BME280;2237;51.870;6.160;2022-08-19T03:36:44;101217.69;;;20.11;80.14
4449;BME280;2237;51.870;6.160;2022-08-19T03:39:11;101220.50;;;20.08;80.13
4449;BME280;2237;51.870;6.160;2022-08-19T03:41:41;101220.72;;;20.03;80.24
4449;BME280;2237;51.870;6.160;2022-08-19T03:44:13;101226.00;;;20.03;80.08
4449;BME280;2237;51.870;6.160;2022-08-19T03:46:54;101224.34;;;20.02;80.49
4449;BME280;2237;51.870;6.160;2022-08-19T03:49:26;101214.84;;;19.98;80.32
4449;BME280;2237;51.870;6.160;2022-08-19T03:51:56;101220.03;;;20.00;80.38
4449;BME280;2237;51.870;6.160;2022-08-19T03:54:24;101222.03;;;19.96;80.32
4449;BME280;2237;51.870;6.160;2022-08-19T03:56:53;101221.31;;;19.93;80.36
4449;BME280;2237;51.870;6.160;2022-08-19T03:59:24;101220.56;;;19.91;80.70
4449;BME280;2237;51.870;6.160;2022-08-19T04:01:53;101213.72;;;19.87;80.66
4449;BME280;2237;51.870;6.160;2022-08-19T04:04:20;101212.97;;;19.85;80.50
4449;BME280;2237;51.870;6.160;2022-08-19T04:06:47;101210.31;;;19.85;80.37
4449;BME280;2237;51.870;6.160;2022-08-19T04:09:14;101212.19;;;19.83;81.05
4449;BME280;2237;51.870;6.160;2022-08-19T04:11:44;101220.28;;;19.80;80.95
4449;BME280;2237;51.870;6.160;2022-08-19T04:14:14;101217.72;;;19.78;80.76
4449;BME280;2237;51.870;6.160;2022-08-19T04:16:41;101212.50;;;19.77;81.01
4449;BME280;2237;51.870;6.160;2022-08-19T04:19:07;101209.78;;;19.78;80.73
4449;BME280;2237;51.870;6.160;2022-08-19T04:21:34;101208.19;;;19.76;81.06
4449;BME280;2237;51.870;6.160;2022-08-19T04:24:01;101213.47;;;19.76;81.04
4449;BME280;2237;51.870;6.160;2022-08-19T04:26:35;101203.81;;;19.74;80.83
4449;BME280;2237;51.870;6.160;2022-08-19T04:29:05;101207.38;;;19.73;80.89
4449;BME280;2237;51.870;6.160;2022-08-19T04:31:38;101209.25;;;19.71;81.04
4449;BME280;2237;51.870;6.160;2022-08-19T04:34:08;101208.50;;;19.69;80.66
4449;BME280;2237;51.870;6.160;2022-08-19T04:36:38;101214.19;;;19.62;81.19
4449;BME280;2237;51.870;6.160;2022-08-19T04:39:11;101213.53;;;19.58;81.08
4449;BME280;2237;51.870;6.160;2022-08-19T04:41:38;101214.44;;;19.57;81.32
4449;BME280;2237;51.870;6.160;2022-08-19T04:44:24;101210.25;;;19.53;81.03
4449;BME280;2237;51.870;6.160;2022-08-19T04:46:52;101211.09;;;19.54;81.43
4449;BME280;2237;51.870;6.160;2022-08-19T04:49:21;101209.16;;;19.57;81.68
4449;BME280;2237;51.870;6.160;2022-08-19T04:51:53;101213.25;;;19.47;81.39
4449;BME280;2237;51.870;6.160;2022-08-19T04:54:23;101214.16;;;19.46;81.73
4449;BME280;2237;51.870;6.160;2022-08-19T04:56:54;101212.44;;;19.45;81.50
4449;BME280;2237;51.870;6.160;2022-08-19T04:59:21;101215.88;;;19.47;82.11
4449;BME280;2237;51.870;6.160;2022-08-19T05:01:48;101212.28;;;19.48;82.22
4449;BME280;2237;51.870;6.160;2022-08-19T05:04:19;101219.88;;;19.54;82.37
4449;BME280;2237;51.870;6.160;2022-08-19T05:06:47;101218.72;;;19.60;82.62
4449;BME280;2237;51.870;6.160;2022-08-19T05:09:15;101223.75;;;19.64;82.35
4449;BME280;2237;51.870;6.160;2022-08-19T05:11:42;101221.72;;;19.69;82.33
4449;BME280;2237;51.870;6.160;2022-08-19T05:14:10;101211.06;;;19.71;82.66
4449;BME280;2237;51.870;6.160;2022-08-19T05:16:39;101214.22;;;19.78;82.47
4449;BME280;2237;51.870;6.160;2022-08-19T05:19:06;101219.34;;;19.81;82.53
4449;BME280;2237;51.870;6.160;2022-08-19T05:21:51;101213.13;;;19.82;82.65
4449;BME280;2237;51.870;6.160;2022-08-19T05:24:36;101211.41;;;19.81;82.52
4449;BME280;2237;51.870;6.160;2022-08-19T05:27:23;101208.59;;;19.84;82.69
4449;BME280;2237;51.870;6.160;2022-08-19T05:29:49;101208.44;;;19.87;82.72
4449;BME280;2237;51.870;6.160;2022-08-19T05:32:16;101204.09;;;19.86;83.52
4449;BME280;2237;51.870;6.160;2022-08-19T05:34:42;101213.56;;;19.90;83.37
4449;BME280;2237;51.870;6.160;2022-08-19T05:37:10;101211.00;;;19.88;83.29
4449;BME280;2237;51.870;6.160;2022-08-19T05:39:37;101213.91;;;19.84;83.30
4449;BME280;2237;51.870;6.160;2022-08-19T05:42:08;101212.81;;;19.88;83.57
4449;BME280;2237;51.870;6.160;2022-08-19T05:44:40;101216.97;;;19.92;84.38
4449;BME280;2237;51.870;6.160;2022-08-19T05:47:11;101219.22;;;19.99;85.18
4449;BME280;2237;51.870;6.160;2022-08-19T05:49:38;101223.38;;;20.03;86.36
4449;BME280;2237;51.870;6.160;2022-08-19T05:52:09;101230.09;;;20.09;86.30
4449;BME280;2237;51.870;6.160;2022-08-19T05:54:39;101228.66;;;20.03;88.02
4449;BME280;2237;51.870;6.160;2022-08-19T05:57:08;101235.91;;;20.00;88.78
4449;BME280;2237;51.870;6.160;2022-08-19T05:59:38;101230.97;;;19.94;91.04
4449;BME280;2237;51.870;6.160;2022-08-19T06:02:06;101231.63;;;19.97;92.24
4449;BME280;2237;51.870;6.160;2022-08-19T06:04:33;101227.03;;;20.01;93.13
4449;BME280;2237;51.870;6.160;2022-08-19T06:07:00;101228.66;;;20.03;94.57
4449;BME280;2237;51.870;6.160;2022-08-19T06:09:38;101224.22;;;20.04;96.23
4449;BME280;2237;51.870;6.160;2022-08-19T06:12:05;101229.44;;;20.05;96.50
4449;BME280;2237;51.870;6.160;2022-08-19T06:14:34;101228.91;;;20.14;97.07
4449;BME280;2237;51.870;6.160;2022-08-19T06:17:05;101231.31;;;20.19;96.80
4449;BME280;2237;51.870;6.160;2022-08-19T06:19:33;101238.13;;;20.23;97.21
4449;BME280;2237;51.870;6.160;2022-08-19T06:22:06;101233.22;;;20.17;98.37
4449;BME280;2237;51.870;6.160;2022-08-19T06:24:34;101243.59;;;20.20;98.61
4449;BME280;2237;51.870;6.160;2022-08-19T06:27:01;101244.88;;;20.13;100.00
4449;BME280;2237;51.870;6.160;2022-08-19T06:29:28;101236.31;;;20.25;100.00
4449;BME280;2237;51.870;6.160;2022-08-19T06:31:58;101247.03;;;20.38;100.00
4449;BME280;2237;51.870;6.160;2022-08-19T06:34:27;101253.44;;;20.49;99.92
4449;BME280;2237;51.870;6.160;2022-08-19T06:36:55;101248.06;;;20.51;99.99
4449;BME280;2237;51.870;6.160;2022-08-19T06:39:28;101249.56;;;20.55;99.63
4449;BME280;2237;51.870;6.160;2022-08-19T06:42:00;101254.97;;;20.53;100.00
4449;BME280;2237;51.870;6.160;2022-08-19T06:44:29;101258.13;;;20.60;100.00
4449;BME280;2237;51.870;6.160;2022-08-19T06:47:10;101249.06;;;20.64;100.00
4449;BME280;2237;51.870;6.160;2022-08-19T06:49:48;101251.28;;;20.71;100.00
4449;BME280;2237;51.870;6.160;2022-08-19T06:52:15;101256.97;;;20.79;100.00
4449;BME280;2237;51.870;6.160;2022-08-19T06:54:42;101257.88;;;20.94;100.00
4449;BME280;2237;51.870;6.160;2022-08-19T06:57:23;101259.03;;;21.04;99.93
4449;BME280;2237;51.870;6.160;2022-08-19T06:59:53;101270.00;;;21.14;99.60
4449;BME280;2237;51.870;6.160;2022-08-19T07:02:20;101263.66;;;21.16;99.85
4449;BME280;2237;51.870;6.160;2022-08-19T07:04:47;101262.41;;;21.08;100.00
4449;BME280;2237;51.870;6.160;2022-08-19T07:07:19;101268.19;;;21.14;99.78
4449;BME280;2237;51.870;6.160;2022-08-19T07:09:49;101267.16;;;21.17;99.37
4449;BME280;2237;51.870;6.160;2022-08-19T07:12:29;101268.47;;;21.10;99.66
4449;BME280;2237;51.870;6.160;2022-08-19T07:15:03;101273.25;;;21.03;100.00
4449;BME280;2237;51.870;6.160;2022-08-19T07:17:30;101270.97;;;21.27;100.00
4449;BME280;2237;51.870;6.160;2022-08-19T07:20:00;101272.13;;;21.37;99.51
4449;BME280;2237;51.870;6.160;2022-08-19T07:22:33;101271.22;;;21.52;98.55
4449;BME280;2237;51.870;6.160;2022-08-19T07:25:00;101277.84;;;21.59;98.58
4449;BME280;2237;51.870;6.160;2022-08-19T07:27:29;101269.22;;;21.56;97.57
4449;BME280;2237;51.870;6.160;2022-08-19T07:29:59;101274.25;;;21.60;97.37
4449;BME280;2237;51.870;6.160;2022-08-19T07:32:25;101269.97;;;21.58;96.51
4449;BME280;2237;51.870;6.160;2022-08-19T07:34:53;101272.94;;;21.67;97.38
4449;BME280;2237;51.870;6.160;2022-08-19T07:37:19;101276.13;;;21.86;97.05
4449;BME280;2237;51.870;6.160;2022-08-19T07:39:47;101270.28;;;21.81;97.62
4449;BME280;2237;51.870;6.160;2022-08-19T07:42:13;101277.66;;;21.76;95.86
4449;BME280;2237;51.870;6.160;2022-08-19T07:44:41;101277.88;;;21.73;94.63
4449;BME280;2237;51.870;6.160;2022-08-19T07:47:15;101283.69;;;21.94;94.01
4449;BME280;2237;51.870;6.160;2022-08-19T07:50:05;101286.00;;;22.13;93.08
4449;BME280;2237;51.870;6.160;2022-08-19T07:52:33;101285.34;;;22.09;92.68
4449;BME280;2237;51.870;6.160;2022-08-19T07:55:03;101284.88;;;22.17;92.72
4449;BME280;2237;51.870;6.160;2022-08-19T07:57:30;101287.97;;;22.37;92.02
4449;BME280;2237;51.870;6.160;2022-08-19T07:59:56;101290.41;;;22.55;90.58
4449;BME280;2237;51.870;6.160;2022-08-19T08:02:23;101287.22;;;22.62;89.59
4449;BME280;2237;51.870;6.160;2022-08-19T08:04:49;101289.59;;;22.67;88.14
4449;BME280;2237;51.870;6.160;2022-08-19T08:07:34;101285.53;;;22.61;87.23
4449;BME280;2237;51.870;6.160;2022-08-19T08:10:19;101288.28;;;22.60;85.30
4449;BME280;2237;51.870;6.160;2022-08-19T08:12:50;101297.13;;;22.60;85.30
4449;BME280;2237;51.870;6.160;2022-08-19T08:15:36;101300.50;;;22.62;83.12
4449;BME280;2237;51.870;6.160;2022-08-19T08:18:09;101307.94;;;22.57;82.97
4449;BME280;2237;51.870;6.160;2022-08-19T08:20:35;101301.47;;;22.75;82.17
4449;BME280;2237;51.870;6.160;2022-08-19T08:23:02;101308.59;;;22.87;80.74
4449;BME280;2237;51.870;6.160;2022-08-19T08:25:46;101314.97;;;22.85;78.55
4449;BME280;2237;51.870;6.160;2022-08-19T08:28:18;101319.63;;;22.81;76.31
4449;BME280;2237;51.870;6.160;2022-08-19T08:30:47;101319.22;;;22.87;75.82
4449;BME280;2237;51.870;6.160;2022-08-19T08:33:20;101315.56;;;23.02;75.29
4449;BME280;2237;51.870;6.160;2022-08-19T08:36:00;101315.47;;;23.04;74.92
4449;BME280;2237;51.870;6.160;2022-08-19T08:38:29;101312.41;;;23.10;74.17
4449;BME280;2237;51.870;6.160;2022-08-19T08:44:00;101313.03;;;23.14;74.39
4449;BME280;2237;51.870;6.160;2022-08-19T08:46:37;101315.09;;;23.23;73.33
4449;BME280;2237;51.870;6.160;2022-08-19T08:52:05;101309.56;;;23.26;72.04
4449;BME280;2237;51.870;6.160;2022-08-19T08:54:36;101309.28;;;23.30;71.91
4449;BME280;2237;51.870;6.160;2022-08-19T08:57:08;101306.66;;;23.43;70.83
4449;BME280;2237;51.870;6.160;2022-08-19T08:59:39;101316.88;;;23.49;70.16
4449;BME280;2237;51.870;6.160;2022-08-19T09:02:08;101303.25;;;23.41;67.20
4449;BME280;2237;51.870;6.160;2022-08-19T09:04:36;101302.63;;;23.50;65.33
4449;BME280;2237;51.870;6.160;2022-08-19T09:10:13;101305.19;;;23.64;66.09
4449;BME280;2237;51.870;6.160;2022-08-19T09:15:29;101305.50;;;23.85;64.38
4449;BME280;2237;51.870;6.160;2022-08-19T09:18:03;101304.13;;;23.79;62.31
4449;BME280;2237;51.870;6.160;2022-08-19T09:20:32;101303.72;;;23.85;61.58
4449;BME280;2237;51.870;6.160;2022-08-19T09:22:59;101293.50;;;23.79;60.87
4449;BME280;2237;51.870;6.160;2022-08-19T09:25:26;101296.78;;;23.70;60.12
4449;BME280;2237;51.870;6.160;2022-08-19T09:27:55;101297.94;;;23.66;60.94
4449;BME280;2237;51.870;6.160;2022-08-19T09:30:40;101293.69;;;23.89;61.31
4449;BME280;2237;51.870;6.160;2022-08-19T09:33:08;101296.03;;;24.06;60.69
4449;BME280;2237;51.870;6.160;2022-08-19T09:35:34;101296.63;;;24.09;58.88
4449;BME280;2237;51.870;6.160;2022-08-19T09:38:19;101298.03;;;24.28;57.70
4449;BME280;2237;51.870;6.160;2022-08-19T09:40:46;101293.47;;;24.17;56.64
4449;BME280;2237;51.870;6.160;2022-08-19T09:43:13;101292.19;;;24.10;57.71
4449;BME280;2237;51.870;6.160;2022-08-19T09:45:58;101297.09;;;24.16;55.78
4449;BME280;2237;51.870;6.160;2022-08-19T09:48:26;101294.09;;;24.21;54.24
4449;BME280;2237;51.870;6.160;2022-08-19T09:50:53;101294.94;;;24.21;53.97
4449;BME280;2237;51.870;6.160;2022-08-19T09:53:20;101290.38;;;24.23;54.96
4449;BME280;2237;51.870;6.160;2022-08-19T09:55:50;101299.94;;;24.26;55.05
4449;BME280;2237;51.870;6.160;2022-08-19T09:58:17;101294.13;;;24.44;55.19
4449;BME280;2237;51.870;6.160;2022-08-19T10:00:49;101298.09;;;24.39;49.85
4449;BME280;2237;51.870;6.160;2022-08-19T10:03:17;101309.34;;;24.55;51.06
4449;BME280;2237;51.870;6.160;2022-08-19T10:05:43;101300.78;;;24.62;51.08
4449;BME280;2237;51.870;6.160;2022-08-19T10:08:41;101302.34;;;24.78;51.98
4449;BME280;2237;51.870;6.160;2022-08-19T10:11:15;101302.41;;;24.89;52.36
4449;BME280;2237;51.870;6.160;2022-08-19T10:14:02;101296.81;;;25.04;52.32
4449;BME280;2237;51.870;6.160;2022-08-19T10:16:32;101291.97;;;25.09;51.50
4449;BME280;2237;51.870;6.160;2022-08-19T10:19:04;101287.59;;;25.08;50.90
4449;BME280;2237;51.870;6.160;2022-08-19T10:21:32;101297.25;;;24.98;51.24
4449;BME280;2237;51.870;6.160;2022-08-19T10:24:03;101298.47;;;25.05;50.96
4449;BME280;2237;51.870;6.160;2022-08-19T10:26:36;101293.47;;;25.24;51.22
4449;BME280;2237;51.870;6.160;2022-08-19T10:29:04;101290.13;;;25.45;50.83
4449;BME280;2237;51.870;6.160;2022-08-19T10:31:34;101297.25;;;25.68;50.67
4449;BME280;2237;51.870;6.160;2022-08-19T10:34:21;101294.81;;;25.65;50.49
4449;BME280;2237;51.870;6.160;2022-08-19T10:36:53;101302.91;;;25.63;55.67
4449;BME280;2237;51.870;6.160;2022-08-19T10:39:26;101306.06;;;25.57;57.18
4449;BME280;2237;51.870;6.160;2022-08-19T10:41:56;101300.59;;;25.48;58.46
4449;BME280;2237;51.870;6.160;2022-08-19T10:44:23;101306.41;;;25.18;59.51
4449;BME280;2237;51.870;6.160;2022-08-19T10:46:57;101297.56;;;25.17;60.91
4449;BME280;2237;51.870;6.160;2022-08-19T10:49:25;101304.25;;;25.23;61.12
4449;BME280;2237;51.870;6.160;2022-08-19T10:51:53;101299.03;;;25.21;61.11
4449;BME280;2237;51.870;6.160;2022-08-19T10:54:45;101303.63;;;25.19;61.14
4449;BME280;2237;51.870;6.160;2022-08-19T10:57:33;101299.00;;;25.10;61.64
4449;BME280;2237;51.870;6.160;2022-08-19T11:00:20;101299.28;;;25.18;61.07
4449;BME280;2237;51.870;6.160;2022-08-19T11:02:49;101299.63;;;25.60;59.48
4449;BME280;2237;51.870;6.160;2022-08-19T11:05:15;101291.53;;;25.72;58.08
4449;BME280;2237;51.870;6.160;2022-08-19T11:07:44;101288.72;;;25.52;56.59
4449;BME280;2237;51.870;6.160;2022-08-19T11:10:13;101295.69;;;25.31;56.75
4449;BME280;2237;51.870;6.160;2022-08-19T11:12:46;101287.94;;;25.39;57.12
4449;BME280;2237;51.870;6.160;2022-08-19T11:15:13;101299.81;;;25.46;54.88
4449;BME280;2237;51.870;6.160;2022-08-19T11:17:39;101294.78;;;25.54;55.60
4449;BME280;2237;51.870;6.160;2022-08-19T11:20:12;101295.91;;;25.27;55.25
4449;BME280;2237;51.870;6.160;2022-08-19T11:22:40;101293.00;;;25.31;56.66
4449;BME280;2237;51.870;6.160;2022-08-19T11:25:09;101299.78;;;25.35;55.79
4449;BME280;2237;51.870;6.160;2022-08-19T11:27:40;101305.81;;;25.25;55.86
4449;BME280;2237;51.870;6.160;2022-08-19T11:30:13;101310.94;;;25.28;55.12
4449;BME280;2237;51.870;6.160;2022-08-19T11:32:41;101311.25;;;25.13;54.87
4449;BME280;2237;51.870;6.160;2022-08-19T11:35:15;101303.28;;;24.89;54.50
4449;BME280;2237;51.870;6.160;2022-08-19T11:37:42;101304.03;;;25.02;55.01
4449;BME280;2237;51.870;6.160;2022-08-19T11:40:09;101298.25;;;25.08;54.66
4449;BME280;2237;51.870;6.160;2022-08-19T11:42:36;101295.78;;;25.29;53.75
4449;BME280;2237;51.870;6.160;2022-08-19T11:45:26;101298.13;;;25.34;53.19
4449;BME280;2237;51.870;6.160;2022-08-19T11:47:53;101299.31;;;25.41;53.31
4449;BME280;2237;51.870;6.160;2022-08-19T11:50:20;101300.13;;;25.19;52.68
4449;BME280;2237;51.870;6.160;2022-08-19T11:52:47;101293.78;;;25.09;51.99
4449;BME280;2237;51.870;6.160;2022-08-19T11:55:17;101297.56;;;25.17;52.17
4449;BME280;2237;51.870;6.160;2022-08-19T11:57:43;101301.75;;;25.44;52.39
4449;BME280;2237;51.870;6.160;2022-08-19T12:00:10;101293.56;;;25.58;51.97
4449;BME280;2237;51.870;6.160;2022-08-19T12:02:39;101290.44;;;25.64;51.49
4449;BME280;2237;51.870;6.160;2022-08-19T12:05:06;101304.16;;;25.59;51.62
4449;BME280;2237;51.870;6.160;2022-08-19T12:07:38;101303.78;;;25.64;51.45
4449;BME280;2237;51.870;6.160;2022-08-19T12:10:07;101299.50;;;25.50;51.54
4449;BME280;2237;51.870;6.160;2022-08-19T12:12:35;101297.25;;;25.68;50.97
4449;BME280;2237;51.870;6.160;2022-08-19T12:15:06;101295.53;;;25.78;50.93
4449;BME280;2237;51.870;6.160;2022-08-19T12:17:33;101291.06;;;25.90;50.78
4449;BME280;2237;51.870;6.160;2022-08-19T12:19:59;101293.00;;;25.65;51.07
4449;BME280;2237;51.870;6.160;2022-08-19T12:22:26;101289.47;;;25.76;50.05
4449;BME280;2237;51.870;6.160;2022-08-19T12:24:52;101290.94;;;25.80;48.33
4449;BME280;2237;51.870;6.160;2022-08-19T12:27:20;101296.41;;;25.90;47.80
4449;BME280;2237;51.870;6.160;2022-08-19T12:30:08;101286.69;;;26.11;49.88
4449;BME280;2237;51.870;6.160;2022-08-19T12:32:35;101286.47;;;26.25;49.57
4449;BME280;2237;51.870;6.160;2022-08-19T12:35:03;101288.75;;;26.41;49.36
4449;BME280;2237;51.870;6.160;2022-08-19T12:37:29;101285.81;;;26.55;49.78
4449;BME280;2237;51.870;6.160;2022-08-19T12:39:58;101280.94;;;26.60;49.76
4449;BME280;2237;51.870;6.160;2022-08-19T12:42:25;101287.22;;;26.70;49.59
4449;BME280;2237;51.870;6.160;2022-08-19T12:44:51;101282.59;;;26.72;49.33
4449;BME280;2237;51.870;6.160;2022-08-19T12:47:18;101282.34;;;26.75;48.93
4449;BME280;2237;51.870;6.160;2022-08-19T12:49:45;101282.59;;;26.72;49.16
4449;BME280;2237;51.870;6.160;2022-08-19T12:52:22;101275.28;;;26.85;49.35
4449;BME280;2237;51.870;6.160;2022-08-19T12:54:50;101275.25;;;27.17;48.61
4449;BME280;2237;51.870;6.160;2022-08-19T12:57:20;101263.53;;;27.29;47.54
4449;BME280;2237;51.870;6.160;2022-08-19T12:59:46;101260.13;;;27.27;48.74
4449;BME280;2237;51.870;6.160;2022-08-19T13:02:13;101265.28;;;27.39;48.71
4449;BME280;2237;51.870;6.160;2022-08-19T13:04:39;101265.78;;;27.44;47.58
4449;BME280;2237;51.870;6.160;2022-08-19T13:07:07;101272.09;;;27.43;47.46
4449;BME280;2237;51.870;6.160;2022-08-19T13:09:35;101266.25;;;27.18;47.47
4449;BME280;2237;51.870;6.160;2022-08-19T13:12:02;101258.66;;;27.13;48.44
4449;BME280;2237;51.870;6.160;2022-08-19T13:14:34;101255.19;;;27.43;47.92
4449;BME280;2237;51.870;6.160;2022-08-19T13:17:02;101257.00;;;27.63;47.43
4449;BME280;2237;51.870;6.160;2022-08-19T13:19:28;101264.44;;;27.80;46.85
4449;BME280;2237;51.870;6.160;2022-08-19T13:21:56;101256.56;;;27.88;46.72
4449;BME280;2237;51.870;6.160;2022-08-19T13:24:26;101268.50;;;28.05;46.21
4449;BME280;2237;51.870;6.160;2022-08-19T13:27:00;101253.34;;;28.34;45.77
4449;BME280;2237;51.870;6.160;2022-08-19T13:29:26;101254.41;;;28.72;45.59
4449;BME280;2237;51.870;6.160;2022-08-19T13:32:11;101255.13;;;28.93;44.39
4449;BME280;2237;51.870;6.160;2022-08-19T13:34:57;101249.16;;;29.37;43.89
4449;BME280;2237;51.870;6.160;2022-08-19T13:37:23;101250.72;;;29.40;43.74
4449;BME280;2237;51.870;6.160;2022-08-19T13:42:39;101240.13;;;29.38;43.61